Time;durP1;ratioP1;P1;durP2;ratioP2;P2;SDS_P1;SDS_P2;PMS_P1;PMS_P2;Temp;Humidity;BMP_temperature;BMP_pressure;BME280_temperature;BME280_humidity;BME280_pressure;Samples;Min_cycle;Max_cycle;Signal;HPM_P1;HPM_P2
2021/07/18 00:00:38;;;;;;;6.85;2.17;;;;;;;;;;6147787;28;20533;-81
2021/07/18 00:03:40;;;;;;;3.72;2.00;;;;;;;;;;6124532;28;20098;-81
2021/07/18 00:06:41;;;;;;;2.38;2.10;;;;;;;;;;6118586;29;20291;-82
2021/07/18 00:09:43;;;;;;;3.17;1.90;;;;;;;;;;6109413;28;20051;-82
2021/07/18 00:12:45;;;;;;;4.45;2.28;;;;;;;;;;6126710;28;20083;-82
2021/07/18 00:15:48;;;;;;;3.85;1.83;;;;;;;;;;6141613;28;20128;-82
2021/07/18 00:18:49;;;;;;;2.92;1.52;;;;;;;;;;6142865;28;20062;-82
2021/07/18 00:21:51;;;;;;;3.67;1.88;;;;;;;;;;6157887;28;20136;-81
2021/07/18 00:24:52;;;;;;;3.75;1.70;;;;;;;;;;6142274;28;20051;-82
2021/07/18 00:27:54;;;;;;;7.88;2.20;;;;;;;;;;6130404;28;20059;-82
2021/07/18 00:30:56;;;;;;;3.22;1.90;;;;;;;;;;6096073;29;20102;-81
2021/07/18 00:33:58;;;;;;;4.45;2.13;;;;;;;;;;6108908;29;20195;-81
2021/07/18 00:36:59;;;;;;;2.78;2.08;;;;;;;;;;6092494;29;20127;-81
2021/07/18 00:40:01;;;;;;;3.63;2.13;;;;;;;;;;6102571;29;20044;-82
2021/07/18 00:43:04;;;;;;;4.28;2.45;;;;;;;;;;6139894;28;20126;-81
2021/07/18 00:46:06;;;;;;;4.33;2.10;;;;;;;;;;6141845;28;20328;-81
2021/07/18 00:49:08;;;;;;;3.28;2.10;;;;;;;;;;6132133;28;20505;-81
2021/07/18 00:52:09;;;;;;;4.85;2.30;;;;;;;;;;6120820;28;20055;-81
2021/07/18 00:55:12;;;;;;;5.13;2.17;;;;;;;;;;6119863;28;20126;-81
2021/07/18 00:58:14;;;;;;;3.30;2.03;;;;;;;;;;6120497;29;20067;-81
2021/07/18 01:01:18;;;;;;;3.13;2.05;;;;;;;;;;6120092;28;20230;-81
2021/07/18 01:04:20;;;;;;;4.40;1.98;;;;;;;;;;6142662;28;20047;-81
2021/07/18 01:07:22;;;;;;;3.95;1.85;;;;;;;;;;6142905;28;20129;-81
2021/07/18 01:10:24;;;;;;;3.58;1.90;;;;;;;;;;6141616;28;20075;-81
2021/07/18 01:13:26;;;;;;;4.28;1.98;;;;;;;;;;6143976;28;20046;-80
2021/07/18 01:16:28;;;;;;;4.70;2.03;;;;;;;;;;6158773;28;20167;-81
2021/07/18 01:19:33;;;;;;;4.47;1.85;;;;;;;;;;6146398;28;20121;-81
2021/07/18 01:22:34;;;;;;;3.65;2.15;;;;;;;;;;6175980;28;20067;-81
2021/07/18 01:25:37;;;;;;;5.85;2.20;;;;;;;;;;6170214;28;20111;-82
2021/07/18 01:28:39;;;;;;;2.47;1.83;;;;;;;;;;6127474;28;20056;-82
2021/07/18 01:31:41;;;;;;;4.55;2.30;;;;;;;;;;6130749;28;20048;-81
2021/07/18 01:34:43;;;;;;;2.80;2.17;;;;;;;;;;6128499;29;20044;-81
2021/07/18 01:37:44;;;;;;;3.08;2.33;;;;;;;;;;6137367;28;20051;-80
2021/07/18 01:40:46;;;;;;;6.20;2.60;;;;;;;;;;6148728;28;20063;-80
2021/07/18 01:43:48;;;;;;;3.35;2.60;;;;;;;;;;6151239;28;20098;-81
2021/07/18 01:46:51;;;;;;;4.03;2.35;;;;;;;;;;6142342;28;20058;-80
2021/07/18 01:49:52;;;;;;;4.43;2.03;;;;;;;;;;6126563;29;20067;-81
2021/07/18 01:52:54;;;;;;;3.17;1.92;;;;;;;;;;6141771;29;20063;-81
2021/07/18 01:55:56;;;;;;;4.38;2.28;;;;;;;;;;6140256;28;20100;-80
2021/07/18 01:58:58;;;;;;;3.75;2.15;;;;;;;;;;6165759;28;20039;-80
2021/07/18 02:01:59;;;;;;;3.33;2.30;;;;;;;;;;6150573;28;20071;-80
2021/07/18 02:05:05;;;;;;;3.13;2.00;;;;;;;;;;6151407;28;20042;-81
2021/07/18 02:08:07;;;;;;;3.40;2.28;;;;;;;;;;6149085;28;20150;-80
2021/07/18 02:11:08;;;;;;;4.78;2.22;;;;;;;;;;6153502;28;20103;-80
2021/07/18 02:14:10;;;;;;;3.97;2.22;;;;;;;;;;6150939;28;20126;-80
2021/07/18 02:17:11;;;;;;;2.78;2.30;;;;;;;;;;6159494;28;20902;-80
2021/07/18 02:20:17;;;;;;;2.60;2.28;;;;;;;;;;6131266;29;20112;-80
2021/07/18 02:23:21;;;;;;;4.60;2.15;;;;;;;;;;6146529;28;20492;-80
2021/07/18 02:26:27;;;;;;;3.28;2.20;;;;;;;;;;6154807;28;20074;-80
2021/07/18 02:29:28;;;;;;;3.28;2.20;;;;;;;;;;6152142;28;20807;-80
2021/07/18 02:32:30;;;;;;;3.70;2.13;;;;;;;;;;6147972;28;20513;-80
2021/07/18 02:35:32;;;;;;;3.67;2.60;;;;;;;;;;6149882;28;20087;-80
2021/07/18 02:38:33;;;;;;;4.35;2.10;;;;;;;;;;6154497;28;20066;-80
2021/07/18 02:41:35;;;;;;;6.18;2.28;;;;;;;;;;6167773;28;20051;-80
2021/07/18 02:44:36;;;;;;;4.10;2.30;;;;;;;;;;6134633;28;20055;-81
2021/07/18 02:47:38;;;;;;;9.20;3.00;;;;;;;;;;6132668;28;20067;-80
2021/07/18 02:50:40;;;;;;;5.88;3.00;;;;;;;;;;6126636;29;20474;-78
2021/07/18 02:53:42;;;;;;;6.05;2.90;;;;;;;;;;6139397;29;20047;-78
2021/07/18 02:56:43;;;;;;;5.85;3.00;;;;;;;;;;6125305;29;20051;-78
2021/07/18 02:59:45;;;;;;;5.47;2.70;;;;;;;;;;6125321;29;20472;-78
2021/07/18 03:02:47;;;;;;;7.20;2.72;;;;;;;;;;6125442;28;20051;-78
2021/07/18 03:05:48;;;;;;;3.65;2.50;;;;;;;;;;6126449;29;20059;-79
2021/07/18 03:08:50;;;;;;;4.60;2.80;;;;;;;;;;6126703;29;20514;-78
2021/07/18 03:11:53;;;;;;;5.85;2.22;;;;;;;;;;6127497;29;20067;-78
2021/07/18 03:14:54;;;;;;;3.92;2.03;;;;;;;;;;6139065;28;20051;-78
2021/07/18 03:17:56;;;;;;;3.75;2.20;;;;;;;;;;6126867;29;20099;-79
2021/07/18 03:20:57;;;;;;;3.25;2.33;;;;;;;;;;6126320;29;20054;-78
2021/07/18 03:23:59;;;;;;;5.30;2.53;;;;;;;;;;6126807;29;20118;-78
2021/07/18 03:27:01;;;;;;;4.00;2.50;;;;;;;;;;6127463;29;20078;-78
2021/07/18 03:30:05;;;;;;;5.75;2.50;;;;;;;;;;6125586;29;20138;-78
2021/07/18 03:33:07;;;;;;;5.22;2.13;;;;;;;;;;6141238;28;20069;-78
2021/07/18 03:36:08;;;;;;;5.20;2.40;;;;;;;;;;6126825;29;20047;-78
2021/07/18 03:39:10;;;;;;;4.65;2.10;;;;;;;;;;6127004;29;20047;-79
2021/07/18 03:42:12;;;;;;;3.75;2.40;;;;;;;;;;6125390;29;20054;-78
2021/07/18 03:45:14;;;;;;;3.45;2.45;;;;;;;;;;6124949;29;20043;-78
2021/07/18 03:48:16;;;;;;;3.87;2.33;;;;;;;;;;6131039;28;20559;-79
2021/07/18 03:51:18;;;;;;;3.10;2.67;;;;;;;;;;6165479;28;20099;-78
2021/07/18 03:54:20;;;;;;;3.58;2.80;;;;;;;;;;6148343;28;20051;-78
2021/07/18 03:57:22;;;;;;;3.65;2.22;;;;;;;;;;6138505;28;20049;-79
2021/07/18 04:00:24;;;;;;;3.65;2.13;;;;;;;;;;6147108;28;20870;-78
2021/07/18 04:03:25;;;;;;;3.53;2.47;;;;;;;;;;6147829;28;20051;-78
2021/07/18 04:06:27;;;;;;;5.45;2.80;;;;;;;;;;6136220;28;20070;-78
2021/07/18 04:09:29;;;;;;;4.00;2.25;;;;;;;;;;6166520;28;20066;-78
2021/07/18 04:12:30;;;;;;;4.47;2.17;;;;;;;;;;6129449;28;20051;-78
2021/07/18 04:15:32;;;;;;;6.50;2.60;;;;;;;;;;6141516;29;20457;-79
2021/07/18 04:18:34;;;;;;;5.05;2.83;;;;;;;;;;6143460;28;20138;-78
2021/07/18 04:21:36;;;;;;;4.57;2.40;;;;;;;;;;6163235;28;20412;-78
2021/07/18 04:24:37;;;;;;;3.20;2.45;;;;;;;;;;6147584;28;20097;-78
2021/07/18 04:27:39;;;;;;;5.18;2.75;;;;;;;;;;6128708;28;20132;-79
2021/07/18 04:30:41;;;;;;;4.47;2.50;;;;;;;;;;6119951;29;20047;-78
2021/07/18 04:33:43;;;;;;;6.68;2.92;;;;;;;;;;6121168;29;20119;-78
2021/07/18 04:36:46;;;;;;;3.38;2.70;;;;;;;;;;6121919;29;20071;-78
2021/07/18 04:39:48;;;;;;;6.25;2.80;;;;;;;;;;6119418;29;20417;-78
2021/07/18 04:42:49;;;;;;;3.17;2.45;;;;;;;;;;6133948;28;20051;-78
2021/07/18 04:45:51;;;;;;;5.25;2.78;;;;;;;;;;6122501;28;20048;-78
2021/07/18 04:48:53;;;;;;;3.47;2.80;;;;;;;;;;6142202;28;20095;-78
2021/07/18 04:51:54;;;;;;;4.20;2.53;;;;;;;;;;6141745;28;20512;-78
2021/07/18 04:54:56;;;;;;;5.43;2.55;;;;;;;;;;6134029;28;20047;-78
2021/07/18 04:57:58;;;;;;;4.07;2.90;;;;;;;;;;6129032;28;20047;-78
2021/07/18 05:01:00;;;;;;;4.40;2.67;;;;;;;;;;6140780;28;20047;-78
2021/07/18 05:04:02;;;;;;;4.47;2.90;;;;;;;;;;6101612;29;20051;-78
2021/07/18 05:07:04;;;;;;;5.47;3.00;;;;;;;;;;6117127;29;20051;-78
2021/07/18 05:10:06;;;;;;;6.38;2.88;;;;;;;;;;6118141;28;20114;-78
2021/07/18 05:13:08;;;;;;;4.80;2.90;;;;;;;;;;6117784;29;20044;-78
2021/07/18 05:16:09;;;;;;;5.63;3.25;;;;;;;;;;6134441;28;20131;-78
2021/07/18 05:19:11;;;;;;;4.57;2.80;;;;;;;;;;6148430;28;20093;-78
2021/07/18 05:22:13;;;;;;;5.63;3.45;;;;;;;;;;6164763;28;20126;-78
2021/07/18 05:25:15;;;;;;;4.28;3.20;;;;;;;;;;6161148;28;20074;-78
2021/07/18 05:28:17;;;;;;;3.10;2.63;;;;;;;;;;6143167;28;20047;-78
2021/07/18 05:31:19;;;;;;;4.30;2.75;;;;;;;;;;6136295;28;20134;-78
2021/07/18 05:34:20;;;;;;;4.40;2.70;;;;;;;;;;6118291;28;20730;-78
2021/07/18 05:37:24;;;;;;;3.85;2.95;;;;;;;;;;6118798;29;20148;-78
2021/07/18 05:40:26;;;;;;;6.32;3.40;;;;;;;;;;6149623;28;20059;-78
2021/07/18 05:43:28;;;;;;;7.18;3.20;;;;;;;;;;6141744;28;20229;-78
2021/07/18 05:46:29;;;;;;;3.67;2.58;;;;;;;;;;6158717;28;20528;-78
2021/07/18 05:49:31;;;;;;;4.45;2.90;;;;;;;;;;6160766;28;20125;-78
2021/07/18 05:52:33;;;;;;;4.65;2.53;;;;;;;;;;6163374;28;20069;-78
2021/07/18 05:55:34;;;;;;;6.88;2.97;;;;;;;;;;6138246;28;20043;-79
2021/07/18 05:58:36;;;;;;;4.20;2.90;;;;;;;;;;6145164;28;20119;-78
2021/07/18 06:01:38;;;;;;;5.55;3.30;;;;;;;;;;6130988;28;23040;-78
2021/07/18 06:04:39;;;;;;;4.38;2.63;;;;;;;;;;6143818;28;20122;-78
2021/07/18 06:07:41;;;;;;;4.03;2.65;;;;;;;;;;6162498;28;20655;-78
2021/07/18 06:10:43;;;;;;;3.97;2.85;;;;;;;;;;6144426;28;20382;-79
2021/07/18 06:13:45;;;;;;;3.53;2.60;;;;;;;;;;6144344;28;20105;-79
2021/07/18 06:16:47;;;;;;;4.10;2.75;;;;;;;;;;6141578;28;20047;-79
2021/07/18 06:19:48;;;;;;;3.25;2.50;;;;;;;;;;6142922;28;20059;-79
2021/07/18 06:22:51;;;;;;;3.55;2.60;;;;;;;;;;6144148;28;20047;-78
2021/07/18 06:25:53;;;;;;;2.63;2.33;;;;;;;;;;6142105;28;20058;-78
2021/07/18 06:28:55;;;;;;;3.45;2.47;;;;;;;;;;6146417;28;20055;-79
2021/07/18 06:31:58;;;;;;;5.53;2.95;;;;;;;;;;6136908;28;20051;-79
2021/07/18 06:35:01;;;;;;;4.70;2.65;;;;;;;;;;6141117;28;20053;-78
2021/07/18 06:38:04;;;;;;;4.95;2.55;;;;;;;;;;6141730;28;20055;-79
2021/07/18 06:41:06;;;;;;;3.47;2.50;;;;;;;;;;6140421;28;20043;-78
2021/07/18 06:44:08;;;;;;;4.07;2.47;;;;;;;;;;6143679;28;20073;-78
2021/07/18 06:47:09;;;;;;;4.70;2.70;;;;;;;;;;6136760;28;20047;-77
2021/07/18 06:50:12;;;;;;;4.45;2.50;;;;;;;;;;6117532;29;20046;-78
2021/07/18 06:53:13;;;;;;;4.45;2.53;;;;;;;;;;6141027;28;20058;-78
2021/07/18 06:56:15;;;;;;;5.35;2.67;;;;;;;;;;6140293;28;20703;-78
2021/07/18 06:59:17;;;;;;;5.35;2.83;;;;;;;;;;6147566;28;20050;-79
2021/07/18 07:02:18;;;;;;;5.13;2.40;;;;;;;;;;6139905;28;20055;-80
2021/07/18 07:05:20;;;;;;;2.72;2.30;;;;;;;;;;6138645;28;20051;-79
2021/07/18 07:08:22;;;;;;;3.10;2.20;;;;;;;;;;6144563;28;20173;-79
2021/07/18 07:11:24;;;;;;;3.05;2.10;;;;;;;;;;6125588;28;20047;-79
2021/07/18 07:14:26;;;;;;;4.28;2.15;;;;;;;;;;6144162;28;20149;-80
2021/07/18 07:17:27;;;;;;;3.55;2.40;;;;;;;;;;6141327;28;20051;-79
2021/07/18 07:20:29;;;;;;;3.08;2.00;;;;;;;;;;6143129;28;20051;-80
2021/07/18 07:23:31;;;;;;;3.33;2.00;;;;;;;;;;6142457;28;20107;-79
2021/07/18 07:26:33;;;;;;;3.65;1.88;;;;;;;;;;6139836;28;20106;-80
2021/07/18 07:29:35;;;;;;;4.43;2.28;;;;;;;;;;6147560;28;20118;-79
2021/07/18 07:32:38;;;;;;;3.78;2.22;;;;;;;;;;6131266;28;20047;-79
2021/07/18 07:35:39;;;;;;;3.15;1.90;;;;;;;;;;6144482;28;20062;-79
2021/07/18 07:38:41;;;;;;;4.18;2.08;;;;;;;;;;6145226;28;20043;-79
2021/07/18 07:41:43;;;;;;;2.22;2.00;;;;;;;;;;6140654;28;20047;-79
2021/07/18 07:44:45;;;;;;;3.50;2.05;;;;;;;;;;6142378;28;20051;-79
2021/07/18 07:47:47;;;;;;;3.58;1.88;;;;;;;;;;6142357;28;20053;-79
2021/07/18 07:50:49;;;;;;;4.17;1.60;;;;;;;;;;6141852;28;20066;-80
2021/07/18 07:53:51;;;;;;;1.63;1.50;;;;;;;;;;6142601;28;20051;-79
2021/07/18 07:56:52;;;;;;;2.70;1.65;;;;;;;;;;6140385;28;20439;-78
2021/07/18 07:59:54;;;;;;;2.58;1.58;;;;;;;;;;6142681;28;20047;-79
2021/07/18 08:02:56;;;;;;;2.23;1.60;;;;;;;;;;6141085;28;20058;-79
2021/07/18 08:05:58;;;;;;;3.08;1.63;;;;;;;;;;6154854;28;20054;-78
2021/07/18 08:09:00;;;;;;;3.83;1.97;;;;;;;;;;6119857;28;20058;-78
2021/07/18 08:12:02;;;;;;;3.85;1.58;;;;;;;;;;6137650;28;20565;-79
2021/07/18 08:15:39;;;;;;;2.47;1.42;;;;;;;;;;6136833;28;20083;-79
2021/07/18 08:18:59;;;;;;;3.35;1.50;;;;;;;;;;6112860;28;20075;-78
2021/07/18 08:22:00;;;;;;;5.22;1.80;;;;;;;;;;6116691;29;20063;-79
2021/07/18 08:25:05;;;;;;;4.93;1.40;;;;;;;;;;6115126;29;20051;-78
2021/07/18 08:28:08;;;;;;;3.22;1.83;;;;;;;;;;6152667;28;20101;-78
2021/07/18 08:31:10;;;;;;;3.40;1.50;;;;;;;;;;6137699;28;20075;-78
2021/07/18 08:34:11;;;;;;;1.70;1.30;;;;;;;;;;6113364;29;20063;-77
2021/07/18 08:37:13;;;;;;;2.47;1.45;;;;;;;;;;6129280;28;20054;-78
2021/07/18 08:40:15;;;;;;;2.95;1.30;;;;;;;;;;6136639;28;20531;-78
2021/07/18 08:43:19;;;;;;;2.85;1.40;;;;;;;;;;6152824;28;20126;-78
2021/07/18 08:46:21;;;;;;;2.88;1.63;;;;;;;;;;6140646;28;20074;-78
2021/07/18 08:49:22;;;;;;;3.77;1.80;;;;;;;;;;6129677;28;20097;-78
2021/07/18 08:52:25;;;;;;;2.47;1.45;;;;;;;;;;6140156;28;20534;-78
2021/07/18 08:55:26;;;;;;;1.60;1.40;;;;;;;;;;6139260;28;20059;-78
2021/07/18 08:58:28;;;;;;;1.73;1.50;;;;;;;;;;6134558;28;20047;-78
2021/07/18 09:01:31;;;;;;;3.10;1.63;;;;;;;;;;6139069;28;20098;-78
2021/07/18 09:04:34;;;;;;;;;;;;;;;;;;6139190;28;20417;-78
2021/07/18 09:07:49;;;;;;;2.90;1.50;;;;;;;;;;6140145;28;19923;-79
2021/07/18 09:10:51;;;;;;;3.55;1.48;;;;;;;;;;6137045;28;20581;-78
2021/07/18 09:13:57;;;;;;;3.47;1.52;;;;;;;;;;6128640;28;20058;-78
2021/07/18 09:17:00;;;;;;;3.47;1.58;;;;;;;;;;6139935;28;20124;-78
2021/07/18 09:20:16;;;;;;;3.95;1.63;;;;;;;;;;6125203;29;20512;-78
2021/07/18 09:23:30;;;;;;;3.17;1.52;;;;;;;;;;6126979;28;20682;-78
2021/07/18 09:26:32;;;;;;;2.40;1.48;;;;;;;;;;6117447;29;20084;-79
2021/07/18 09:29:48;;;;;;;3.33;1.50;;;;;;;;;;6123110;28;20171;-79
2021/07/18 09:32:51;;;;;;;1.73;1.63;;;;;;;;;;6119160;28;20052;-78
2021/07/18 09:36:12;;;;;;;2.83;1.40;;;;;;;;;;6163401;28;20046;-78
2021/07/18 09:39:15;;;;;;;3.42;1.50;;;;;;;;;;6149046;28;22716;-78
2021/07/18 09:42:44;;;;;;;2.70;1.88;;;;;;;;;;6120432;28;20083;-78
2021/07/18 09:45:54;;;;;;;2.90;1.70;;;;;;;;;;6130213;28;20048;-78
2021/07/18 09:48:59;;;;;;;1.55;1.42;;;;;;;;;;6116113;29;20056;-79
2021/07/18 09:52:27;;;;;;;2.58;1.27;;;;;;;;;;6144878;28;20047;-79
2021/07/18 09:55:29;;;;;;;3.00;1.35;;;;;;;;;;6133100;28;20083;-80
2021/07/18 09:58:31;;;;;;;1.80;1.70;;;;;;;;;;6121951;29;20395;-79
2021/07/18 10:01:34;;;;;;;2.08;1.55;;;;;;;;;;6128899;28;20051;-78
2021/07/18 10:04:39;;;;;;;2.17;1.55;;;;;;;;;;6123379;29;20118;-79
2021/07/18 10:07:41;;;;;;;3.50;1.73;;;;;;;;;;6124386;29;20047;-79
2021/07/18 10:10:42;;;;;;;2.33;1.40;;;;;;;;;;6127385;28;20133;-79
2021/07/18 10:13:47;;;;;;;2.00;1.40;;;;;;;;;;6147037;28;20149;-79
2021/07/18 10:16:51;;;;;;;2.97;2.00;;;;;;;;;;6141541;28;20133;-79
2021/07/18 10:19:53;;;;;;;3.97;2.08;;;;;;;;;;6134659;28;20171;-79
2021/07/18 10:22:56;;;;;;;2.92;1.75;;;;;;;;;;6160010;28;20134;-79
2021/07/18 10:26:00;;;;;;;2.55;1.92;;;;;;;;;;6154528;28;20040;-79
2021/07/18 10:29:02;;;;;;;2.30;1.88;;;;;;;;;;6120940;29;20109;-79
2021/07/18 10:32:07;;;;;;;3.92;2.08;;;;;;;;;;6145375;28;20162;-80
2021/07/18 10:35:13;;;;;;;2.55;2.00;;;;;;;;;;6118882;29;20176;-80
2021/07/18 10:38:19;;;;;;;1.90;1.80;;;;;;;;;;6101395;29;20142;-80
2021/07/18 10:41:44;;;;;;;5.90;4.22;;;;;;;;;;6119207;28;20240;-77
2021/07/18 10:44:48;;;;;;;3.92;2.45;;;;;;;;;;6111792;29;20067;-78
2021/07/18 10:48:06;;;;;;;3.53;2.28;;;;;;;;;;6136746;28;20084;-78
2021/07/18 10:51:08;;;;;;;3.92;2.60;;;;;;;;;;6116264;29;20134;-78
2021/07/18 10:54:14;;;;;;;3.65;2.40;;;;;;;;;;6091599;29;20506;-78
2021/07/18 10:57:24;;;;;;;5.43;2.97;;;;;;;;;;6108301;29;20123;-78
2021/07/18 11:00:27;;;;;;;2.60;2.30;;;;;;;;;;6091173;29;20131;-78
2021/07/18 11:03:40;;;;;;;;;;;;;;;;;;6089446;29;20052;-78
2021/07/18 11:06:42;;;;;;;2.28;2.08;;;;;;;;;;6090581;29;19926;-78
2021/07/18 11:09:46;;;;;;;4.40;2.60;;;;;;;;;;6089456;29;20158;-78
2021/07/18 11:13:00;;;;;;;3.28;2.50;;;;;;;;;;6090855;29;20048;-78
2021/07/18 11:16:02;;;;;;;3.08;2.50;;;;;;;;;;6091884;29;20040;-78
2021/07/18 11:19:04;;;;;;;4.75;2.50;;;;;;;;;;6136027;28;20455;-78
2021/07/18 11:22:13;;;;;;;2.63;2.42;;;;;;;;;;6135603;28;20125;-77
2021/07/18 11:25:42;;;;;;;3.35;2.65;;;;;;;;;;6131364;28;20133;-77
2021/07/18 11:29:04;;;;;;;2.60;2.40;;;;;;;;;;6129366;29;20043;-78
2021/07/18 11:32:21;;;;;;;4.90;3.08;;;;;;;;;;6142822;28;20051;-78
2021/07/18 11:35:23;;;;;;;3.78;2.67;;;;;;;;;;6115365;29;20066;-78
2021/07/18 11:38:25;;;;;;;3.20;2.63;;;;;;;;;;6116973;29;20087;-78
2021/07/18 11:41:30;;;;;;;4.10;3.17;;;;;;;;;;6118601;28;20039;-78
2021/07/18 11:44:32;;;;;;;4.40;2.97;;;;;;;;;;6113449;29;20207;-77
2021/07/18 11:47:34;;;;;;;3.33;2.88;;;;;;;;;;6120935;28;20051;-78
2021/07/18 11:50:36;;;;;;;3.10;2.70;;;;;;;;;;6113733;29;20068;-78
2021/07/18 11:53:46;;;;;;;3.60;3.00;;;;;;;;;;6115153;29;20694;-77
2021/07/18 11:56:50;;;;;;;2.90;2.58;;;;;;;;;;6117062;28;20114;-78
2021/07/18 11:59:52;;;;;;;4.03;3.00;;;;;;;;;;6136668;28;20153;-77
2021/07/18 12:02:54;;;;;;;5.25;3.28;;;;;;;;;;6134500;28;20564;-76
2021/07/18 12:05:56;;;;;;;3.40;2.88;;;;;;;;;;6100541;28;1070200;-77
2021/07/18 12:09:12;;;;;;;4.18;2.80;;;;;;;;;;6137929;28;20190;-77
2021/07/18 12:12:17;;;;;;;5.00;2.88;;;;;;;;;;6127347;28;20055;-77
2021/07/18 12:15:19;;;;;;;3.67;2.80;;;;;;;;;;6114576;29;20394;-77
2021/07/18 12:18:21;;;;;;;4.32;2.65;;;;;;;;;;6116668;28;20092;-78
2021/07/18 12:21:25;;;;;;;4.05;3.00;;;;;;;;;;6118272;29;20103;-78
2021/07/18 12:24:36;;;;;;;4.30;3.15;;;;;;;;;;6114237;29;20187;-78
2021/07/18 12:27:37;;;;;;;3.72;2.97;;;;;;;;;;6116144;29;20048;-78
2021/07/18 12:30:39;;;;;;;5.50;2.80;;;;;;;;;;6123231;28;20131;-78
2021/07/18 12:33:41;;;;;;;3.55;2.70;;;;;;;;;;6117449;28;20055;-77
2021/07/18 12:36:56;;;;;;;3.67;3.03;;;;;;;;;;6113455;29;20055;-78
2021/07/18 12:40:04;;;;;;;3.75;2.83;;;;;;;;;;6114807;29;20539;-77
2021/07/18 12:43:05;;;;;;;5.28;2.75;;;;;;;;;;6114214;29;20613;-78
2021/07/18 12:46:11;;;;;;;3.92;2.88;;;;;;;;;;6118966;28;20051;-78
2021/07/18 12:49:15;;;;;;;3.70;3.20;;;;;;;;;;6134830;28;20126;-78
2021/07/18 12:52:19;;;;;;;3.47;2.90;;;;;;;;;;6137140;28;20055;-77
2021/07/18 12:55:27;;;;;;;3.63;2.70;;;;;;;;;;6125104;28;20154;-77
2021/07/18 12:58:32;;;;;;;2.85;2.63;;;;;;;;;;6127388;29;20048;-78
2021/07/18 13:01:35;;;;;;;3.55;2.97;;;;;;;;;;6114493;28;20047;-78
2021/07/18 13:04:37;;;;;;;3.47;2.88;;;;;;;;;;6095829;29;20052;-77
2021/07/18 13:07:39;;;;;;;3.10;2.67;;;;;;;;;;6113487;29;20051;-78
2021/07/18 13:10:43;;;;;;;3.20;2.60;;;;;;;;;;6113920;29;20521;-79
2021/07/18 13:13:45;;;;;;;3.67;2.53;;;;;;;;;;6115925;29;20082;-78
2021/07/18 13:16:47;;;;;;;3.50;2.50;;;;;;;;;;6134405;28;20138;-78
2021/07/18 13:19:57;;;;;;;3.78;2.67;;;;;;;;;;6133607;28;20078;-82
2021/07/18 13:23:00;;;;;;;3.00;2.47;;;;;;;;;;6138952;28;20051;-82
2021/07/18 13:26:02;;;;;;;3.65;2.60;;;;;;;;;;6147805;28;20513;-82
2021/07/18 13:29:14;;;;;;;3.47;2.45;;;;;;;;;;6133008;28;20109;-81
2021/07/18 13:32:19;;;;;;;2.75;2.50;;;;;;;;;;6130647;29;20067;-80
2021/07/18 13:35:22;;;;;;;4.00;2.33;;;;;;;;;;6119830;28;20561;-80
2021/07/18 13:38:25;;;;;;;2.83;2.60;;;;;;;;;;6144276;28;20055;-81
2021/07/18 13:41:27;;;;;;;3.88;2.47;;;;;;;;;;6133971;28;20160;-78
2021/07/18 13:44:28;;;;;;;3.33;2.30;;;;;;;;;;6153645;28;20097;-80
2021/07/18 13:47:30;;;;;;;4.80;2.47;;;;;;;;;;6146462;28;20560;-79
2021/07/18 13:50:32;;;;;;;3.17;2.15;;;;;;;;;;6134326;28;20555;-79
2021/07/18 13:53:33;;;;;;;2.28;1.95;;;;;;;;;;6140262;28;20134;-79
2021/07/18 13:56:35;;;;;;;2.60;2.10;;;;;;;;;;6130951;28;20051;-79
2021/07/18 13:59:37;;;;;;;3.42;2.10;;;;;;;;;;6126752;28;20043;-77
2021/07/18 14:02:38;;;;;;;2.55;2.00;;;;;;;;;;6141933;28;20059;-80
2021/07/18 14:05:40;;;;;;;3.25;1.90;;;;;;;;;;6148183;28;20075;-78
2021/07/18 14:08:54;;;;;;;2.95;1.92;;;;;;;;;;6152242;28;20055;-82
2021/07/18 14:12:23;;;;;;;3.05;2.03;;;;;;;;;;6123104;28;20051;-78
2021/07/18 14:15:29;;;;;;;;;;;;;;;;;;6145967;28;20421;-80
2021/07/18 14:18:31;;;;;;;2.13;1.80;;;;;;;;;;6133941;28;19930;-77
2021/07/18 14:21:33;;;;;;;2.90;1.67;;;;;;;;;;6157012;28;20507;-78
2021/07/18 14:24:36;;;;;;;2.70;1.90;;;;;;;;;;6156665;28;20040;-78
2021/07/18 14:27:40;;;;;;;4.50;1.88;;;;;;;;;;6139223;28;20047;-77
2021/07/18 14:30:42;;;;;;;1.90;1.70;;;;;;;;;;6141888;28;20043;-77
2021/07/18 14:33:44;;;;;;;5.00;1.67;;;;;;;;;;6137657;28;20113;-77
2021/07/18 14:36:45;;;;;;;3.00;1.90;;;;;;;;;;6143503;28;20040;-78
2021/07/18 14:39:47;;;;;;;2.38;1.83;;;;;;;;;;6140314;28;20047;-77
2021/07/18 14:42:49;;;;;;;3.47;1.60;;;;;;;;;;6141284;28;20138;-77
2021/07/18 14:45:51;;;;;;;1.77;1.67;;;;;;;;;;6138012;28;20070;-77
2021/07/18 14:48:52;;;;;;;3.30;1.60;;;;;;;;;;6141227;28;20083;-77
2021/07/18 14:51:54;;;;;;;1.83;1.60;;;;;;;;;;6141958;28;20146;-77
2021/07/18 14:54:56;;;;;;;2.45;1.63;;;;;;;;;;6140193;28;20075;-77
2021/07/18 14:57:58;;;;;;;1.90;1.58;;;;;;;;;;6132030;29;20450;-77
2021/07/18 15:00:59;;;;;;;;;;;;;;;;;;6135953;28;20137;-77
2021/07/18 15:04:05;;;;;;;2.67;1.80;;;;;;;;;;6132797;28;19945;-76
2021/07/18 15:07:07;;;;;;;2.30;2.10;;;;;;;;;;6115691;29;20044;-77
2021/07/18 15:10:11;;;;;;;3.15;2.00;;;;;;;;;;6122804;28;20174;-77
2021/07/18 15:13:13;;;;;;;4.15;1.70;;;;;;;;;;6140031;28;20115;-77
2021/07/18 15:16:15;;;;;;;2.17;1.73;;;;;;;;;;6137852;28;20044;-77
2021/07/18 15:19:17;;;;;;;2.00;1.70;;;;;;;;;;6128351;28;20082;-77
2021/07/18 15:22:19;;;;;;;3.20;1.83;;;;;;;;;;6140377;28;20059;-77
2021/07/18 15:25:21;;;;;;;1.80;1.70;;;;;;;;;;6140218;28;20039;-77
2021/07/18 15:28:22;;;;;;;3.10;1.52;;;;;;;;;;6120597;28;20120;-78
2021/07/18 15:31:24;;;;;;;2.28;1.70;;;;;;;;;;6130331;28;20737;-77
2021/07/18 15:34:26;;;;;;;2.60;1.67;;;;;;;;;;6116228;29;20067;-77
2021/07/18 15:37:28;;;;;;;2.92;1.80;;;;;;;;;;6131847;28;20031;-77
2021/07/18 15:40:29;;;;;;;4.32;1.90;;;;;;;;;;6137786;28;20126;-77
2021/07/18 15:43:32;;;;;;;1.80;1.55;;;;;;;;;;6096402;28;20523;-77
2021/07/18 15:46:34;;;;;;;2.15;1.65;;;;;;;;;;6112174;28;20458;-77
2021/07/18 15:49:36;;;;;;;2.63;1.70;;;;;;;;;;6115556;28;20047;-77
2021/07/18 15:52:38;;;;;;;;;;;;;;;;;;6130523;28;20044;-76
2021/07/18 15:55:42;;;;;;;1.60;1.50;;;;;;;;;;6121088;28;19946;-76
2021/07/18 15:58:44;;;;;;;2.55;1.60;;;;;;;;;;6090851;29;20072;-76
2021/07/18 16:01:45;;;;;;;4.68;1.90;;;;;;;;;;6114698;28;20095;-76
2021/07/18 16:04:47;;;;;;;;;;;;;;;;;;6116201;29;20134;-77
2021/07/18 16:07:49;;;;;;;2.15;1.55;;;;;;;;;;6129734;29;19962;-77
2021/07/18 16:10:51;;;;;;;3.22;1.83;;;;;;;;;;6115525;28;20195;-77
2021/07/18 16:13:52;;;;;;;2.58;1.58;;;;;;;;;;6115554;29;20048;-77
2021/07/18 16:16:54;;;;;;;6.25;1.80;;;;;;;;;;6115658;29;20502;-77
2021/07/18 16:19:56;;;;;;;4.75;1.95;;;;;;;;;;6129767;29;20849;-77
2021/07/18 16:22:58;;;;;;;2.80;1.80;;;;;;;;;;6130497;28;20524;-77
2021/07/18 16:26:06;;;;;;;3.70;2.28;;;;;;;;;;6115359;29;20040;-76
2021/07/18 16:29:08;;;;;;;4.85;1.80;;;;;;;;;;6114069;29;20072;-76
2021/07/18 16:32:10;;;;;;;2.75;1.90;;;;;;;;;;6130784;28;20131;-76
2021/07/18 16:35:15;;;;;;;3.22;1.70;;;;;;;;;;6113897;29;20036;-76
2021/07/18 16:38:20;;;;;;;2.38;1.70;;;;;;;;;;6115738;29;20130;-76
2021/07/18 16:41:21;;;;;;;3.33;1.85;;;;;;;;;;6116118;28;20118;-76
2021/07/18 16:44:23;;;;;;;2.42;1.73;;;;;;;;;;6125267;28;20071;-76
2021/07/18 16:47:25;;;;;;;3.25;1.70;;;;;;;;;;6136120;28;20047;-76
2021/07/18 16:50:27;;;;;;;4.00;1.87;;;;;;;;;;6137348;28;20067;-77
2021/07/18 16:53:28;;;;;;;2.95;2.10;;;;;;;;;;6138734;28;20585;-76
2021/07/18 16:56:32;;;;;;;2.70;1.65;;;;;;;;;;6131699;28;20502;-77
2021/07/18 16:59:33;;;;;;;3.67;1.90;;;;;;;;;;6115811;29;20173;-77
2021/07/18 17:02:36;;;;;;;4.32;1.75;;;;;;;;;;6123915;28;20043;-77
2021/07/18 17:05:38;;;;;;;3.25;1.80;;;;;;;;;;6137643;28;20062;-76
2021/07/18 17:08:41;;;;;;;3.22;1.90;;;;;;;;;;6138880;28;20047;-76
2021/07/18 17:11:42;;;;;;;4.47;1.65;;;;;;;;;;6129387;28;20537;-78
2021/07/18 17:14:44;;;;;;;3.65;2.08;;;;;;;;;;6114924;29;20538;-77
2021/07/18 17:17:46;;;;;;;3.90;2.00;;;;;;;;;;6115869;28;20069;-77
2021/07/18 17:20:48;;;;;;;3.95;2.00;;;;;;;;;;6130279;29;20051;-77
2021/07/18 17:23:49;;;;;;;7.05;2.10;;;;;;;;;;6097874;29;20633;-77
2021/07/18 17:26:51;;;;;;;3.38;1.92;;;;;;;;;;6129673;28;20263;-77
2021/07/18 17:29:54;;;;;;;4.00;2.20;;;;;;;;;;6119678;28;20134;-77
2021/07/18 17:32:56;;;;;;;2.80;2.03;;;;;;;;;;6139844;28;20474;-78
2021/07/18 17:35:58;;;;;;;6.93;2.10;;;;;;;;;;6134394;28;20681;-77
2021/07/18 17:39:00;;;;;;;4.30;2.20;;;;;;;;;;6129498;28;20135;-77
2021/07/18 17:42:03;;;;;;;2.70;2.10;;;;;;;;;;6137490;28;20047;-78
2021/07/18 17:45:06;;;;;;;2.78;1.85;;;;;;;;;;6140472;28;20451;-78
2021/07/18 17:48:09;;;;;;;3.90;2.03;;;;;;;;;;6139909;28;20134;-78
2021/07/18 17:51:10;;;;;;;2.83;1.83;;;;;;;;;;6141062;28;20126;-77
2021/07/18 17:54:15;;;;;;;3.50;2.10;;;;;;;;;;6138820;28;20067;-78
2021/07/18 17:57:17;;;;;;;3.03;2.03;;;;;;;;;;6140358;28;20071;-76
2021/07/18 18:00:19;;;;;;;4.15;2.40;;;;;;;;;;6139852;28;20043;-77
2021/07/18 18:03:21;;;;;;;4.07;2.03;;;;;;;;;;6137201;28;20094;-77
2021/07/18 18:06:23;;;;;;;5.30;2.10;;;;;;;;;;6139664;28;20047;-77
2021/07/18 18:09:24;;;;;;;3.80;2.20;;;;;;;;;;6141354;28;20051;-78
2021/07/18 18:12:26;;;;;;;5.17;2.40;;;;;;;;;;6128286;28;20071;-78
2021/07/18 18:15:29;;;;;;;4.28;2.10;;;;;;;;;;6133477;29;20459;-77
2021/07/18 18:18:31;;;;;;;3.88;2.28;;;;;;;;;;6123397;29;20043;-79
2021/07/18 18:21:40;;;;;;;3.55;1.95;;;;;;;;;;6146240;28;20122;-79